sensor_id;sensor_type;location;lat;lon;timestamp;temperature;humidity
6865;DHT22;3471;49.678;8.388;2022-09-24T00:00:17;13.80;99.90
6865;DHT22;3471;49.678;8.388;2022-09-24T00:02:42;13.70;99.90
6865;DHT22;3471;49.678;8.388;2022-09-24T00:05:08;13.70;99.90
6865;DHT22;3471;49.678;8.388;2022-09-24T00:07:33;13.70;99.90
6865;DHT22;3471;49.678;8.388;2022-09-24T00:09:59;13.70;99.90
6865;DHT22;3471;49.678;8.388;2022-09-24T00:12:24;13.70;99.90
6865;DHT22;3471;49.678;8.388;2022-09-24T00:14:50;13.60;99.90
6865;DHT22;3471;49.678;8.388;2022-09-24T00:17:15;13.70;99.90
6865;DHT22;3471;49.678;8.388;2022-09-24T00:19:41;13.60;99.90
6865;DHT22;3471;49.678;8.388;2022-09-24T00:22:06;13.60;99.90
6865;DHT22;3471;49.678;8.388;2022-09-24T00:24:32;13.60;99.90
6865;DHT22;3471;49.678;8.388;2022-09-24T00:27:16;13.60;99.90
6865;DHT22;3471;49.678;8.388;2022-09-24T00:29:41;13.60;99.90
6865;DHT22;3471;49.678;8.388;2022-09-24T00:32:07;13.60;99.90
6865;DHT22;3471;49.678;8.388;2022-09-24T00:34:32;13.60;99.90
6865;DHT22;3471;49.678;8.388;2022-09-24T00:36:58;13.60;99.90
6865;DHT22;3471;49.678;8.388;2022-09-24T00:39:23;13.60;99.90
6865;DHT22;3471;49.678;8.388;2022-09-24T00:41:49;13.60;99.90
6865;DHT22;3471;49.678;8.388;2022-09-24T00:46:59;13.60;99.90
6865;DHT22;3471;49.678;8.388;2022-09-24T00:49:24;13.50;99.90
6865;DHT22;3471;49.678;8.388;2022-09-24T00:51:50;13.50;99.90
6865;DHT22;3471;49.678;8.388;2022-09-24T00:54:24;13.50;99.90
6865;DHT22;3471;49.678;8.388;2022-09-24T00:56:51;13.50;99.90
6865;DHT22;3471;49.678;8.388;2022-09-24T00:59:17;13.50;99.90
6865;DHT22;3471;49.678;8.388;2022-09-24T01:01:46;13.50;99.90
6865;DHT22;3471;49.678;8.388;2022-09-24T01:04:12;13.50;99.90
6865;DHT22;3471;49.678;8.388;2022-09-24T01:06:38;13.40;99.90
6865;DHT22;3471;49.678;8.388;2022-09-24T01:09:04;13.40;99.90
6865;DHT22;3471;49.678;8.388;2022-09-24T01:11:41;13.40;99.90
6865;DHT22;3471;49.678;8.388;2022-09-24T01:14:19;13.40;99.90
6865;DHT22;3471;49.678;8.388;2022-09-24T01:22:01;13.20;99.90
6865;DHT22;3471;49.678;8.388;2022-09-24T01:32:16;13.00;99.90
6865;DHT22;3471;49.678;8.388;2022-09-24T01:34:44;12.90;99.90
6865;DHT22;3471;49.678;8.388;2022-09-24T01:37:12;12.90;99.90
6865;DHT22;3471;49.678;8.388;2022-09-24T01:39:39;12.90;99.90
6865;DHT22;3471;49.678;8.388;2022-09-24T01:42:04;12.80;99.90
6865;DHT22;3471;49.678;8.388;2022-09-24T01:44:30;12.80;99.90
6865;DHT22;3471;49.678;8.388;2022-09-24T01:46:56;12.80;99.90
6865;DHT22;3471;49.678;8.388;2022-09-24T01:49:23;12.80;99.90
6865;DHT22;3471;49.678;8.388;2022-09-24T01:51:49;12.70;99.90
6865;DHT22;3471;49.678;8.388;2022-09-24T01:54:17;12.70;99.90
6865;DHT22;3471;49.678;8.388;2022-09-24T01:56:50;12.60;99.90
6865;DHT22;3471;49.678;8.388;2022-09-24T02:02:23;12.60;99.90
6865;DHT22;3471;49.678;8.388;2022-09-24T02:05:01;12.40;99.90
6865;DHT22;3471;49.678;8.388;2022-09-24T02:07:34;12.40;99.90
6865;DHT22;3471;49.678;8.388;2022-09-24T02:10:04;12.30;99.90
6865;DHT22;3471;49.678;8.388;2022-09-24T02:12:31;12.20;99.90
6865;DHT22;3471;49.678;8.388;2022-09-24T02:15:09;12.20;99.90
6865;DHT22;3471;49.678;8.388;2022-09-24T02:17:35;12.10;99.90
6865;DHT22;3471;49.678;8.388;2022-09-24T02:20:03;12.10;99.90
6865;DHT22;3471;49.678;8.388;2022-09-24T02:22:29;12.00;99.90
6865;DHT22;3471;49.678;8.388;2022-09-24T02:24:59;11.90;99.90
6865;DHT22;3471;49.678;8.388;2022-09-24T02:27:25;11.90;99.90
6865;DHT22;3471;49.678;8.388;2022-09-24T02:29:53;11.80;99.90
6865;DHT22;3471;49.678;8.388;2022-09-24T02:32:19;11.80;99.90
6865;DHT22;3471;49.678;8.388;2022-09-24T02:34:47;11.80;99.90
6865;DHT22;3471;49.678;8.388;2022-09-24T02:37:15;11.80;99.90
6865;DHT22;3471;49.678;8.388;2022-09-24T02:39:41;11.80;99.90
6865;DHT22;3471;49.678;8.388;2022-09-24T02:42:07;11.80;99.90
6865;DHT22;3471;49.678;8.388;2022-09-24T02:44:34;11.80;99.90
6865;DHT22;3471;49.678;8.388;2022-09-24T02:47:00;11.70;99.90
6865;DHT22;3471;49.678;8.388;2022-09-24T02:49:26;11.70;99.90
6865;DHT22;3471;49.678;8.388;2022-09-24T02:51:52;11.70;99.90
6865;DHT22;3471;49.678;8.388;2022-09-24T02:54:18;11.70;99.90
6865;DHT22;3471;49.678;8.388;2022-09-24T02:56:43;11.70;99.90
6865;DHT22;3471;49.678;8.388;2022-09-24T02:59:09;11.60;99.90
6865;DHT22;3471;49.678;8.388;2022-09-24T03:01:35;11.60;99.90
6865;DHT22;3471;49.678;8.388;2022-09-24T03:04:00;11.70;99.90
6865;DHT22;3471;49.678;8.388;2022-09-24T03:06:26;11.70;99.90
6865;DHT22;3471;49.678;8.388;2022-09-24T03:08:51;11.70;99.90
6865;DHT22;3471;49.678;8.388;2022-09-24T03:11:18;11.70;99.90
6865;DHT22;3471;49.678;8.388;2022-09-24T03:13:44;11.70;99.90
6865;DHT22;3471;49.678;8.388;2022-09-24T03:16:10;11.70;99.90
6865;DHT22;3471;49.678;8.388;2022-09-24T03:18:35;11.70;99.90
6865;DHT22;3471;49.678;8.388;2022-09-24T03:21:02;11.70;99.90
6865;DHT22;3471;49.678;8.388;2022-09-24T03:23:28;11.60;99.90
6865;DHT22;3471;49.678;8.388;2022-09-24T03:25:54;11.60;99.90
6865;DHT22;3471;49.678;8.388;2022-09-24T03:28:20;11.60;99.90
6865;DHT22;3471;49.678;8.388;2022-09-24T03:30:45;11.60;99.90
6865;DHT22;3471;49.678;8.388;2022-09-24T03:33:27;11.60;99.90
6865;DHT22;3471;49.678;8.388;2022-09-24T03:35:57;11.60;99.90
6865;DHT22;3471;49.678;8.388;2022-09-24T03:38:22;11.50;99.90
6865;DHT22;3471;49.678;8.388;2022-09-24T03:40:48;11.50;99.90
6865;DHT22;3471;49.678;8.388;2022-09-24T03:43:13;11.50;99.90
6865;DHT22;3471;49.678;8.388;2022-09-24T03:45:39;11.50;99.90
6865;DHT22;3471;49.678;8.388;2022-09-24T03:48:04;11.50;99.90
6865;DHT22;3471;49.678;8.388;2022-09-24T03:50:31;11.40;99.90
6865;DHT22;3471;49.678;8.388;2022-09-24T03:52:59;11.40;99.90
6865;DHT22;3471;49.678;8.388;2022-09-24T03:55:25;11.30;99.90
6865;DHT22;3471;49.678;8.388;2022-09-24T03:57:50;11.30;99.90
6865;DHT22;3471;49.678;8.388;2022-09-24T04:00:16;11.20;99.90
6865;DHT22;3471;49.678;8.388;2022-09-24T04:02:41;11.20;99.90
6865;DHT22;3471;49.678;8.388;2022-09-24T04:05:07;11.20;99.90
6865;DHT22;3471;49.678;8.388;2022-09-24T04:07:32;11.20;99.90
6865;DHT22;3471;49.678;8.388;2022-09-24T04:09:58;11.30;99.90
6865;DHT22;3471;49.678;8.388;2022-09-24T04:12:23;11.30;99.90
6865;DHT22;3471;49.678;8.388;2022-09-24T04:14:49;11.30;99.90
6865;DHT22;3471;49.678;8.388;2022-09-24T04:17:14;11.30;99.90
6865;DHT22;3471;49.678;8.388;2022-09-24T04:19:41;11.30;99.90
6865;DHT22;3471;49.678;8.388;2022-09-24T04:22:07;11.40;99.90
6865;DHT22;3471;49.678;8.388;2022-09-24T04:24:33;11.30;99.90
6865;DHT22;3471;49.678;8.388;2022-09-24T04:26:58;11.30;99.90
6865;DHT22;3471;49.678;8.388;2022-09-24T04:29:24;11.30;99.90
6865;DHT22;3471;49.678;8.388;2022-09-24T04:31:49;11.30;99.90
6865;DHT22;3471;49.678;8.388;2022-09-24T04:34:15;11.20;99.90
6865;DHT22;3471;49.678;8.388;2022-09-24T04:36:42;11.20;99.90
6865;DHT22;3471;49.678;8.388;2022-09-24T04:39:07;11.20;99.90
6865;DHT22;3471;49.678;8.388;2022-09-24T04:41:33;11.20;99.90
6865;DHT22;3471;49.678;8.388;2022-09-24T04:43:59;11.20;99.90
6865;DHT22;3471;49.678;8.388;2022-09-24T04:46:24;11.20;99.90
6865;DHT22;3471;49.678;8.388;2022-09-24T04:48:50;11.10;99.90
6865;DHT22;3471;49.678;8.388;2022-09-24T04:51:16;11.10;99.90
6865;DHT22;3471;49.678;8.388;2022-09-24T04:53:43;11.10;99.90
6865;DHT22;3471;49.678;8.388;2022-09-24T04:56:12;11.10;99.90
6865;DHT22;3471;49.678;8.388;2022-09-24T04:58:38;11.00;99.90
6865;DHT22;3471;49.678;8.388;2022-09-24T05:01:03;11.00;99.90
6865;DHT22;3471;49.678;8.388;2022-09-24T05:03:29;11.10;99.90
6865;DHT22;3471;49.678;8.388;2022-09-24T05:05:55;11.10;99.90
6865;DHT22;3471;49.678;8.388;2022-09-24T05:08:21;11.10;99.90
6865;DHT22;3471;49.678;8.388;2022-09-24T05:10:46;11.10;99.90
6865;DHT22;3471;49.678;8.388;2022-09-24T05:13:12;11.10;99.90
6865;DHT22;3471;49.678;8.388;2022-09-24T05:15:37;11.10;99.90
6865;DHT22;3471;49.678;8.388;2022-09-24T05:18:03;11.10;99.90
6865;DHT22;3471;49.678;8.388;2022-09-24T05:20:30;11.10;99.90
6865;DHT22;3471;49.678;8.388;2022-09-24T05:22:56;11.10;99.90
6865;DHT22;3471;49.678;8.388;2022-09-24T05:25:21;11.10;99.90
6865;DHT22;3471;49.678;8.388;2022-09-24T05:27:51;11.20;99.90
6865;DHT22;3471;49.678;8.388;2022-09-24T05:30:17;11.20;99.90
6865;DHT22;3471;49.678;8.388;2022-09-24T05:32:43;11.20;99.90
6865;DHT22;3471;49.678;8.388;2022-09-24T05:35:09;11.20;99.90
6865;DHT22;3471;49.678;8.388;2022-09-24T05:37:35;11.20;99.90
6865;DHT22;3471;49.678;8.388;2022-09-24T05:40:02;11.20;99.90
6865;DHT22;3471;49.678;8.388;2022-09-24T05:42:48;11.20;99.90
6865;DHT22;3471;49.678;8.388;2022-09-24T05:45:13;11.30;99.90
6865;DHT22;3471;49.678;8.388;2022-09-24T05:47:41;11.30;99.90
6865;DHT22;3471;49.678;8.388;2022-09-24T05:50:07;11.30;99.90
6865;DHT22;3471;49.678;8.388;2022-09-24T05:52:32;11.40;99.90
6865;DHT22;3471;49.678;8.388;2022-09-24T05:54:58;11.40;99.90
6865;DHT22;3471;49.678;8.388;2022-09-24T05:57:23;11.50;99.90
6865;DHT22;3471;49.678;8.388;2022-09-24T05:59:49;11.50;99.90
6865;DHT22;3471;49.678;8.388;2022-09-24T06:02:14;11.50;99.90
6865;DHT22;3471;49.678;8.388;2022-09-24T06:04:40;11.50;99.90
6865;DHT22;3471;49.678;8.388;2022-09-24T06:07:05;11.50;99.90
6865;DHT22;3471;49.678;8.388;2022-09-24T06:09:31;11.60;99.90
6865;DHT22;3471;49.678;8.388;2022-09-24T06:11:56;11.60;99.90
6865;DHT22;3471;49.678;8.388;2022-09-24T06:14:22;11.60;99.90
6865;DHT22;3471;49.678;8.388;2022-09-24T06:16:47;11.70;99.90
6865;DHT22;3471;49.678;8.388;2022-09-24T06:19:12;11.70;99.90
6865;DHT22;3471;49.678;8.388;2022-09-24T06:21:38;11.80;99.90
6865;DHT22;3471;49.678;8.388;2022-09-24T06:24:03;11.80;99.90
6865;DHT22;3471;49.678;8.388;2022-09-24T06:26:29;11.90;99.90
6865;DHT22;3471;49.678;8.388;2022-09-24T06:28:55;11.90;99.90
6865;DHT22;3471;49.678;8.388;2022-09-24T06:31:20;12.00;99.90
6865;DHT22;3471;49.678;8.388;2022-09-24T06:33:46;12.00;99.90
6865;DHT22;3471;49.678;8.388;2022-09-24T06:36:11;12.10;99.90
6865;DHT22;3471;49.678;8.388;2022-09-24T06:38:37;12.20;99.90
6865;DHT22;3471;49.678;8.388;2022-09-24T06:41:06;12.20;99.90
6865;DHT22;3471;49.678;8.388;2022-09-24T06:43:32;12.30;99.90
6865;DHT22;3471;49.678;8.388;2022-09-24T06:45:58;12.40;99.90
6865;DHT22;3471;49.678;8.388;2022-09-24T06:48:24;12.40;99.90
6865;DHT22;3471;49.678;8.388;2022-09-24T06:50:50;12.40;99.90
6865;DHT22;3471;49.678;8.388;2022-09-24T06:53:16;12.50;99.90
6865;DHT22;3471;49.678;8.388;2022-09-24T06:55:42;12.60;99.90
6865;DHT22;3471;49.678;8.388;2022-09-24T06:58:12;12.60;99.90
6865;DHT22;3471;49.678;8.388;2022-09-24T07:00:38;12.70;99.90
6865;DHT22;3471;49.678;8.388;2022-09-24T07:03:04;12.70;99.90
6865;DHT22;3471;49.678;8.388;2022-09-24T07:05:31;12.80;99.90
6865;DHT22;3471;49.678;8.388;2022-09-24T07:07:56;12.80;99.90
6865;DHT22;3471;49.678;8.388;2022-09-24T07:10:22;12.90;99.90
6865;DHT22;3471;49.678;8.388;2022-09-24T07:12:48;13.00;99.90
6865;DHT22;3471;49.678;8.388;2022-09-24T07:15:14;13.10;99.90
6865;DHT22;3471;49.678;8.388;2022-09-24T07:17:39;13.10;99.90
6865;DHT22;3471;49.678;8.388;2022-09-24T07:20:05;13.20;99.90
6865;DHT22;3471;49.678;8.388;2022-09-24T07:22:30;13.30;99.90
6865;DHT22;3471;49.678;8.388;2022-09-24T07:24:56;13.40;99.90
6865;DHT22;3471;49.678;8.388;2022-09-24T07:27:21;13.50;99.90
6865;DHT22;3471;49.678;8.388;2022-09-24T07:29:47;13.60;99.90
6865;DHT22;3471;49.678;8.388;2022-09-24T07:32:14;13.70;99.90
6865;DHT22;3471;49.678;8.388;2022-09-24T07:34:40;13.80;99.90
6865;DHT22;3471;49.678;8.388;2022-09-24T07:37:05;13.90;99.90
6865;DHT22;3471;49.678;8.388;2022-09-24T07:39:31;14.10;99.90
6865;DHT22;3471;49.678;8.388;2022-09-24T07:41:57;14.20;99.90
6865;DHT22;3471;49.678;8.388;2022-09-24T07:44:22;14.30;99.90
6865;DHT22;3471;49.678;8.388;2022-09-24T07:46:48;14.40;99.90
6865;DHT22;3471;49.678;8.388;2022-09-24T07:49:14;14.50;99.90
6865;DHT22;3471;49.678;8.388;2022-09-24T07:51:40;14.60;99.90
6865;DHT22;3471;49.678;8.388;2022-09-24T07:54:05;14.70;99.90
6865;DHT22;3471;49.678;8.388;2022-09-24T07:56:31;14.80;99.90
6865;DHT22;3471;49.678;8.388;2022-09-24T07:58:56;14.90;99.90
6865;DHT22;3471;49.678;8.388;2022-09-24T08:01:22;15.00;99.90
6865;DHT22;3471;49.678;8.388;2022-09-24T08:03:50;15.10;99.90
6865;DHT22;3471;49.678;8.388;2022-09-24T08:06:15;15.20;99.90
6865;DHT22;3471;49.678;8.388;2022-09-24T08:08:41;15.30;99.90
6865;DHT22;3471;49.678;8.388;2022-09-24T08:11:09;15.40;99.90
6865;DHT22;3471;49.678;8.388;2022-09-24T08:13:36;15.60;99.90
6865;DHT22;3471;49.678;8.388;2022-09-24T08:16:02;15.70;99.90
6865;DHT22;3471;49.678;8.388;2022-09-24T08:18:28;15.80;99.90
6865;DHT22;3471;49.678;8.388;2022-09-24T08:20:56;15.90;99.90
6865;DHT22;3471;49.678;8.388;2022-09-24T08:23:22;16.10;99.90
6865;DHT22;3471;49.678;8.388;2022-09-24T08:25:47;16.10;99.90
6865;DHT22;3471;49.678;8.388;2022-09-24T08:28:13;16.30;99.90
6865;DHT22;3471;49.678;8.388;2022-09-24T08:30:41;16.40;99.90
6865;DHT22;3471;49.678;8.388;2022-09-24T08:33:07;16.50;99.90
6865;DHT22;3471;49.678;8.388;2022-09-24T08:35:33;16.60;99.90
6865;DHT22;3471;49.678;8.388;2022-09-24T08:37:59;16.60;99.90
6865;DHT22;3471;49.678;8.388;2022-09-24T08:40:26;16.70;99.90
6865;DHT22;3471;49.678;8.388;2022-09-24T08:43:14;16.70;99.90
6865;DHT22;3471;49.678;8.388;2022-09-24T08:45:47;16.70;99.90
6865;DHT22;3471;49.678;8.388;2022-09-24T08:48:32;16.70;99.90
6865;DHT22;3471;49.678;8.388;2022-09-24T08:51:02;16.70;99.90
6865;DHT22;3471;49.678;8.388;2022-09-24T08:56:01;16.60;99.90
6865;DHT22;3471;49.678;8.388;2022-09-24T09:06:01;16.70;99.90
6865;DHT22;3471;49.678;8.388;2022-09-24T09:10:57;16.80;99.90
6865;DHT22;3471;49.678;8.388;2022-09-24T09:13:25;16.80;99.90
6865;DHT22;3471;49.678;8.388;2022-09-24T09:15:53;16.90;99.90
6865;DHT22;3471;49.678;8.388;2022-09-24T09:18:32;16.90;99.90
6865;DHT22;3471;49.678;8.388;2022-09-24T09:21:09;17.00;99.90
6865;DHT22;3471;49.678;8.388;2022-09-24T09:23:38;17.00;99.90
6865;DHT22;3471;49.678;8.388;2022-09-24T09:26:07;17.10;99.90
6865;DHT22;3471;49.678;8.388;2022-09-24T09:28:34;17.20;99.90
6865;DHT22;3471;49.678;8.388;2022-09-24T09:31:09;17.30;99.90
6865;DHT22;3471;49.678;8.388;2022-09-24T09:39:33;18.20;99.90
6865;DHT22;3471;49.678;8.388;2022-09-24T09:44:28;19.10;99.90
6865;DHT22;3471;49.678;8.388;2022-09-24T09:46:59;19.50;99.90
6865;DHT22;3471;49.678;8.388;2022-09-24T09:49:30;19.90;99.90
6865;DHT22;3471;49.678;8.388;2022-09-24T09:51:57;20.20;99.90
6865;DHT22;3471;49.678;8.388;2022-09-24T09:54:35;20.40;99.90
6865;DHT22;3471;49.678;8.388;2022-09-24T09:57:02;20.50;99.90
6865;DHT22;3471;49.678;8.388;2022-09-24T09:59:27;20.30;99.90
6865;DHT22;3471;49.678;8.388;2022-09-24T10:01:53;20.10;99.90
6865;DHT22;3471;49.678;8.388;2022-09-24T10:07:02;19.80;99.90
6865;DHT22;3471;49.678;8.388;2022-09-24T10:09:28;19.70;99.90
6865;DHT22;3471;49.678;8.388;2022-09-24T10:11:53;19.60;99.90
6865;DHT22;3471;49.678;8.388;2022-09-24T10:14:19;19.50;99.90
6865;DHT22;3471;49.678;8.388;2022-09-24T10:16:51;19.50;99.90
6865;DHT22;3471;49.678;8.388;2022-09-24T10:19:21;19.50;99.90
6865;DHT22;3471;49.678;8.388;2022-09-24T10:21:47;19.50;99.90
6865;DHT22;3471;49.678;8.388;2022-09-24T10:24:14;19.60;99.90
6865;DHT22;3471;49.678;8.388;2022-09-24T10:26:41;19.60;99.90
6865;DHT22;3471;49.678;8.388;2022-09-24T10:29:18;19.70;99.90
6865;DHT22;3471;49.678;8.388;2022-09-24T10:32:04;19.70;99.90
6865;DHT22;3471;49.678;8.388;2022-09-24T10:34:30;19.70;99.90
6865;DHT22;3471;49.678;8.388;2022-09-24T10:37:03;19.60;99.90
6865;DHT22;3471;49.678;8.388;2022-09-24T10:39:29;19.50;99.90
6865;DHT22;3471;49.678;8.388;2022-09-24T10:41:55;19.40;99.90
6865;DHT22;3471;49.678;8.388;2022-09-24T10:44:21;19.40;99.90
6865;DHT22;3471;49.678;8.388;2022-09-24T10:47:02;19.40;99.90
6865;DHT22;3471;49.678;8.388;2022-09-24T10:52:20;19.50;99.90
6865;DHT22;3471;49.678;8.388;2022-09-24T10:59:47;20.00;99.90
6865;DHT22;3471;49.678;8.388;2022-09-24T11:04:54;20.40;99.90
6865;DHT22;3471;49.678;8.388;2022-09-24T11:15:15;21.10;99.90
6865;DHT22;3471;49.678;8.388;2022-09-24T11:20:37;21.60;99.90
6865;DHT22;3471;49.678;8.388;2022-09-24T11:23:06;21.80;99.90
6865;DHT22;3471;49.678;8.388;2022-09-24T11:38:35;21.30;99.90
6865;DHT22;3471;49.678;8.388;2022-09-24T11:43:31;21.30;99.90
6865;DHT22;3471;49.678;8.388;2022-09-24T11:48:41;21.90;99.90
6865;DHT22;3471;49.678;8.388;2022-09-24T11:53:39;22.70;99.90
6865;DHT22;3471;49.678;8.388;2022-09-24T11:58:35;23.00;99.90
6865;DHT22;3471;49.678;8.388;2022-09-24T12:01:03;22.90;99.90
6865;DHT22;3471;49.678;8.388;2022-09-24T12:03:44;22.60;99.90
6865;DHT22;3471;49.678;8.388;2022-09-24T12:06:15;22.30;99.90
6865;DHT22;3471;49.678;8.388;2022-09-24T12:08:43;22.10;99.90
6865;DHT22;3471;49.678;8.388;2022-09-24T12:11:12;21.90;99.90
6865;DHT22;3471;49.678;8.388;2022-09-24T12:13:40;21.80;99.90
6865;DHT22;3471;49.678;8.388;2022-09-24T12:16:14;21.70;99.90
6865;DHT22;3471;49.678;8.388;2022-09-24T12:18:43;21.80;99.90
6865;DHT22;3471;49.678;8.388;2022-09-24T12:21:10;21.90;99.90
6865;DHT22;3471;49.678;8.388;2022-09-24T12:23:38;22.10;99.90
6865;DHT22;3471;49.678;8.388;2022-09-24T12:26:04;22.20;99.90
6865;DHT22;3471;49.678;8.388;2022-09-24T12:29:15;22.30;99.90
6865;DHT22;3471;49.678;8.388;2022-09-24T12:35:06;22.20;99.90
6865;DHT22;3471;49.678;8.388;2022-09-24T12:37:12;22.10;99.90
6865;DHT22;3471;49.678;8.388;2022-09-24T12:42:33;22.10;99.90
6865;DHT22;3471;49.678;8.388;2022-09-24T12:45:00;22.10;99.90
6865;DHT22;3471;49.678;8.388;2022-09-24T12:47:28;22.10;99.90
6865;DHT22;3471;49.678;8.388;2022-09-24T12:50:00;22.20;99.90
6865;DHT22;3471;49.678;8.388;2022-09-24T12:52:27;22.30;99.90
6865;DHT22;3471;49.678;8.388;2022-09-24T12:54:58;22.30;99.90
6865;DHT22;3471;49.678;8.388;2022-09-24T12:57:33;22.30;99.90
6865;DHT22;3471;49.678;8.388;2022-09-24T13:00:04;22.30;99.90
6865;DHT22;3471;49.678;8.388;2022-09-24T13:02:49;22.40;99.90
6865;DHT22;3471;49.678;8.388;2022-09-24T13:07:41;22.50;99.90
6865;DHT22;3471;49.678;8.388;2022-09-24T13:10:09;22.50;99.90
6865;DHT22;3471;49.678;8.388;2022-09-24T13:12:36;22.40;99.90
6865;DHT22;3471;49.678;8.388;2022-09-24T13:15:03;22.30;99.90
6865;DHT22;3471;49.678;8.388;2022-09-24T13:17:29;22.20;99.90
6865;DHT22;3471;49.678;8.388;2022-09-24T13:20:03;22.10;99.90
6865;DHT22;3471;49.678;8.388;2022-09-24T13:22:31;21.90;99.90
6865;DHT22;3471;49.678;8.388;2022-09-24T13:30:04;21.70;99.90
6865;DHT22;3471;49.678;8.388;2022-09-24T13:32:32;21.60;99.90
6865;DHT22;3471;49.678;8.388;2022-09-24T13:35:05;21.70;99.90
6865;DHT22;3471;49.678;8.388;2022-09-24T13:37:34;21.90;99.90
6865;DHT22;3471;49.678;8.388;2022-09-24T13:40:05;22.20;99.90
6865;DHT22;3471;49.678;8.388;2022-09-24T13:42:53;22.40;99.90
6865;DHT22;3471;49.678;8.388;2022-09-24T13:45:21;22.50;99.90
6865;DHT22;3471;49.678;8.388;2022-09-24T13:47:49;22.60;99.90
6865;DHT22;3471;49.678;8.388;2022-09-24T13:55:09;22.60;99.90
6865;DHT22;3471;49.678;8.388;2022-09-24T13:57:43;22.50;99.90
6865;DHT22;3471;49.678;8.388;2022-09-24T14:02:44;22.20;99.90
6865;DHT22;3471;49.678;8.388;2022-09-24T14:05:16;22.00;99.90
6865;DHT22;3471;49.678;8.388;2022-09-24T14:07:51;21.90;99.90
6865;DHT22;3471;49.678;8.388;2022-09-24T14:10:17;21.80;99.90
6865;DHT22;3471;49.678;8.388;2022-09-24T14:12:43;21.70;99.90
6865;DHT22;3471;49.678;8.388;2022-09-24T14:15:12;21.60;99.90
6865;DHT22;3471;49.678;8.388;2022-09-24T14:17:38;21.60;99.90
6865;DHT22;3471;49.678;8.388;2022-09-24T14:20:04;21.50;99.90
6865;DHT22;3471;49.678;8.388;2022-09-24T14:22:37;21.40;99.90
6865;DHT22;3471;49.678;8.388;2022-09-24T14:27:28;21.20;99.90
6865;DHT22;3471;49.678;8.388;2022-09-24T14:29:57;21.10;99.90
6865;DHT22;3471;49.678;8.388;2022-09-24T14:32:28;21.10;99.90
6865;DHT22;3471;49.678;8.388;2022-09-24T14:34:54;21.10;99.90
6865;DHT22;3471;49.678;8.388;2022-09-24T14:37:23;21.10;99.90
6865;DHT22;3471;49.678;8.388;2022-09-24T14:39:49;21.00;99.90
6865;DHT22;3471;49.678;8.388;2022-09-24T14:42:22;20.90;99.90
6865;DHT22;3471;49.678;8.388;2022-09-24T14:44:48;20.80;99.90
6865;DHT22;3471;49.678;8.388;2022-09-24T14:47:25;20.80;99.90
6865;DHT22;3471;49.678;8.388;2022-09-24T14:49:50;20.90;99.90
6865;DHT22;3471;49.678;8.388;2022-09-24T14:52:34;20.90;99.90
6865;DHT22;3471;49.678;8.388;2022-09-24T14:55:14;21.00;99.90
6865;DHT22;3471;49.678;8.388;2022-09-24T14:57:40;21.10;99.90
6865;DHT22;3471;49.678;8.388;2022-09-24T15:02:53;21.60;99.90
6865;DHT22;3471;49.678;8.388;2022-09-24T15:05:25;21.80;99.90
6865;DHT22;3471;49.678;8.388;2022-09-24T15:07:52;21.90;99.90
6865;DHT22;3471;49.678;8.388;2022-09-24T15:10:19;22.00;99.90
6865;DHT22;3471;49.678;8.388;2022-09-24T15:12:49;22.10;99.90
6865;DHT22;3471;49.678;8.388;2022-09-24T15:17:43;22.00;99.90
6865;DHT22;3471;49.678;8.388;2022-09-24T15:20:09;21.90;99.90
6865;DHT22;3471;49.678;8.388;2022-09-24T15:22:35;21.80;99.90
6865;DHT22;3471;49.678;8.388;2022-09-24T15:25:01;21.70;99.90
6865;DHT22;3471;49.678;8.388;2022-09-24T15:27:27;21.60;99.90
6865;DHT22;3471;49.678;8.388;2022-09-24T15:29:56;21.40;99.90
6865;DHT22;3471;49.678;8.388;2022-09-24T15:32:27;21.30;99.90
6865;DHT22;3471;49.678;8.388;2022-09-24T15:34:53;21.10;99.90
6865;DHT22;3471;49.678;8.388;2022-09-24T15:37:21;21.00;99.90
6865;DHT22;3471;49.678;8.388;2022-09-24T15:39:47;21.00;99.90
6865;DHT22;3471;49.678;8.388;2022-09-24T15:42:14;20.90;99.90
6865;DHT22;3471;49.678;8.388;2022-09-24T15:44:39;20.80;99.90
6865;DHT22;3471;49.678;8.388;2022-09-24T15:47:06;20.70;99.90
6865;DHT22;3471;49.678;8.388;2022-09-24T15:49:32;20.60;99.90
6865;DHT22;3471;49.678;8.388;2022-09-24T15:52:04;20.50;99.90
6865;DHT22;3471;49.678;8.388;2022-09-24T15:54:30;20.40;99.90
6865;DHT22;3471;49.678;8.388;2022-09-24T15:56:55;20.30;99.90
6865;DHT22;3471;49.678;8.388;2022-09-24T15:59:21;20.30;99.90
6865;DHT22;3471;49.678;8.388;2022-09-24T16:01:51;20.20;99.90
6865;DHT22;3471;49.678;8.388;2022-09-24T16:04:18;20.10;99.90
6865;DHT22;3471;49.678;8.388;2022-09-24T16:06:44;20.00;99.90
6865;DHT22;3471;49.678;8.388;2022-09-24T16:09:09;20.00;99.90
6865;DHT22;3471;49.678;8.388;2022-09-24T16:11:34;19.90;99.90
6865;DHT22;3471;49.678;8.388;2022-09-24T16:14:00;19.90;99.90
6865;DHT22;3471;49.678;8.388;2022-09-24T16:16:26;19.80;99.90
6865;DHT22;3471;49.678;8.388;2022-09-24T16:18:52;19.80;99.90
6865;DHT22;3471;49.678;8.388;2022-09-24T16:21:17;19.70;99.90
6865;DHT22;3471;49.678;8.388;2022-09-24T16:23:42;19.70;99.90
6865;DHT22;3471;49.678;8.388;2022-09-24T16:26:08;19.60;99.90
6865;DHT22;3471;49.678;8.388;2022-09-24T16:28:33;19.60;99.90
6865;DHT22;3471;49.678;8.388;2022-09-24T16:31:03;19.50;99.90
6865;DHT22;3471;49.678;8.388;2022-09-24T16:33:29;19.40;99.90
6865;DHT22;3471;49.678;8.388;2022-09-24T16:35:54;19.30;99.90
6865;DHT22;3471;49.678;8.388;2022-09-24T16:38:20;19.30;99.90
6865;DHT22;3471;49.678;8.388;2022-09-24T16:40:45;19.20;99.90
6865;DHT22;3471;49.678;8.388;2022-09-24T16:43:10;19.20;99.90
6865;DHT22;3471;49.678;8.388;2022-09-24T16:45:36;19.10;99.90
6865;DHT22;3471;49.678;8.388;2022-09-24T16:48:01;19.10;99.90
6865;DHT22;3471;49.678;8.388;2022-09-24T16:50:27;19.10;99.90
6865;DHT22;3471;49.678;8.388;2022-09-24T16:52:53;19.10;99.90
6865;DHT22;3471;49.678;8.388;2022-09-24T16:55:22;19.00;99.90
6865;DHT22;3471;49.678;8.388;2022-09-24T16:57:49;19.00;99.90
6865;DHT22;3471;49.678;8.388;2022-09-24T17:00:15;18.90;99.90
6865;DHT22;3471;49.678;8.388;2022-09-24T17:02:40;18.90;99.90
6865;DHT22;3471;49.678;8.388;2022-09-24T17:05:06;18.90;99.90
6865;DHT22;3471;49.678;8.388;2022-09-24T17:07:31;18.80;99.90
6865;DHT22;3471;49.678;8.388;2022-09-24T17:09:57;18.80;99.90
6865;DHT22;3471;49.678;8.388;2022-09-24T17:12:47;18.70;99.90
6865;DHT22;3471;49.678;8.388;2022-09-24T17:15:14;18.70;99.90
6865;DHT22;3471;49.678;8.388;2022-09-24T17:17:40;18.70;99.90
6865;DHT22;3471;49.678;8.388;2022-09-24T17:20:06;18.60;99.90
6865;DHT22;3471;49.678;8.388;2022-09-24T17:22:32;18.60;99.90
6865;DHT22;3471;49.678;8.388;2022-09-24T17:24:58;18.50;99.90
6865;DHT22;3471;49.678;8.388;2022-09-24T17:27:23;18.50;99.90
6865;DHT22;3471;49.678;8.388;2022-09-24T17:29:49;18.40;99.90
6865;DHT22;3471;49.678;8.388;2022-09-24T17:32:15;18.40;99.90
6865;DHT22;3471;49.678;8.388;2022-09-24T17:34:40;18.30;99.90
6865;DHT22;3471;49.678;8.388;2022-09-24T17:37:05;18.30;99.90
6865;DHT22;3471;49.678;8.388;2022-09-24T17:39:31;18.20;99.90
6865;DHT22;3471;49.678;8.388;2022-09-24T17:41:57;18.20;99.90
6865;DHT22;3471;49.678;8.388;2022-09-24T17:44:22;18.10;99.90
6865;DHT22;3471;49.678;8.388;2022-09-24T17:46:48;18.10;99.90
6865;DHT22;3471;49.678;8.388;2022-09-24T17:49:13;18.00;99.90
6865;DHT22;3471;49.678;8.388;2022-09-24T17:51:39;18.00;99.90
6865;DHT22;3471;49.678;8.388;2022-09-24T17:54:12;17.90;99.90
6865;DHT22;3471;49.678;8.388;2022-09-24T17:56:38;17.90;99.90
6865;DHT22;3471;49.678;8.388;2022-09-24T17:59:05;17.80;99.90